Time;durP1;ratioP1;P1;durP2;ratioP2;P2;SDS_P1;SDS_P2;PMS_P1;PMS_P2;Temp;Humidity;BMP_temperature;BMP_pressure;BME280_temperature;BME280_humidity;BME280_pressure;Samples;Min_cycle;Max_cycle;Signal;HPM_P1;HPM_P2
2023/03/01 00:01:02;;;;;;;15.60;10.80;;;5.90;62.00;;;;;;6276434;22;20006;-71
2023/03/01 00:03:28;;;;;;;15.33;11.00;;;5.80;61.40;;;;;;6276509;22;20007;-71
2023/03/01 00:05:54;;;;;;;14.63;10.93;;;5.80;61.90;;;;;;6276183;22;20004;-71
2023/03/01 00:08:20;;;;;;;18.30;10.53;;;5.90;62.10;;;;;;6275919;22;20438;-71
2023/03/01 00:10:45;;;;;;;14.97;10.60;;;5.90;62.10;;;;;;6276336;22;20095;-71
2023/03/01 00:13:11;;;;;;;14.87;10.27;;;5.90;62.20;;;;;;6276176;22;20457;-71
2023/03/01 00:15:41;;;;;;;17.90;11.30;;;5.90;62.30;;;;;;6274503;22;20449;-71
2023/03/01 00:18:08;;;;;;;14.90;10.27;;;5.90;62.20;;;;;;6275974;22;19995;-71
2023/03/01 00:20:34;;;;;;;18.33;10.60;;;5.90;62.50;;;;;;6276180;22;20007;-72
2023/03/01 00:23:00;;;;;;;16.13;10.57;;;5.90;62.10;;;;;;6276180;22;20057;-71
2023/03/01 00:25:25;;;;;;;15.07;9.53;;;6.00;62.60;;;;;;6276206;22;20000;-71
2023/03/01 00:27:51;;;;;;;15.30;9.97;;;5.90;62.20;;;;;;6276444;22;20062;-72
2023/03/01 00:30:17;;;;;;;17.90;10.73;;;5.90;61.90;;;;;;6275999;22;20008;-72
2023/03/01 00:32:42;;;;;;;14.83;11.23;;;5.90;61.80;;;;;;6275969;22;20346;-72
2023/03/01 00:35:08;;;;;;;12.70;10.13;;;5.80;62.00;;;;;;6276085;22;20422;-72
2023/03/01 00:37:34;;;;;;;15.57;10.87;;;5.80;61.70;;;;;;6275914;22;20062;-72
2023/03/01 00:39:59;;;;;;;16.63;11.10;;;5.80;62.00;;;;;;6276199;22;20006;-71
2023/03/01 00:42:25;;;;;;;16.03;10.57;;;5.70;61.80;;;;;;6276079;22;20079;-71
2023/03/01 00:44:51;;;;;;;16.00;10.60;;;5.70;62.40;;;;;;6275766;22;19996;-71
2023/03/01 00:47:16;;;;;;;15.13;10.77;;;5.70;62.60;;;;;;6275879;22;20043;-72
2023/03/01 00:49:42;;;;;;;19.47;10.17;;;5.70;62.70;;;;;;6275866;22;20018;-71
2023/03/01 00:52:08;;;;;;;15.07;10.03;;;5.70;62.90;;;;;;6275754;22;20422;-72
2023/03/01 00:54:33;;;;;;;16.43;9.77;;;5.70;62.40;;;;;;6276057;22;20006;-71
2023/03/01 00:56:59;;;;;;;15.07;10.07;;;5.80;62.40;;;;;;6275808;22;20461;-71
2023/03/01 00:59:25;;;;;;;15.63;10.27;;;5.80;62.50;;;;;;6275714;22;20378;-72
2023/03/01 01:01:50;;;;;;;14.53;10.27;;;5.80;62.50;;;;;;6278044;22;20418;-71
2023/03/01 01:04:16;;;;;;;13.43;9.90;;;5.90;63.00;;;;;;6278047;22;20025;-72
2023/03/01 01:06:43;;;;;;;17.90;10.27;;;5.80;62.80;;;;;;6276481;22;20011;-71
2023/03/01 01:09:20;;;;;;;17.27;10.87;;;5.90;63.00;;;;;;6277533;22;20011;-71
2023/03/01 01:11:50;;;;;;;15.37;10.37;;;5.80;62.90;;;;;;6277886;22;20393;-71
2023/03/01 01:14:17;;;;;;;16.57;11.10;;;5.80;62.80;;;;;;6277967;22;20461;-71
2023/03/01 01:16:43;;;;;;;14.57;10.23;;;5.80;63.10;;;;;;6277431;22;20070;-71
2023/03/01 01:19:11;;;;;;;14.37;10.43;;;5.80;62.90;;;;;;6277658;22;20001;-71
2023/03/01 01:21:36;;;;;;;14.00;10.57;;;5.80;63.30;;;;;;6277296;22;20284;-71
2023/03/01 01:24:04;;;;;;;16.90;11.30;;;5.80;62.80;;;;;;6277583;22;20038;-71
2023/03/01 01:26:31;;;;;;;18.23;11.00;;;5.70;62.90;;;;;;6277773;22;19996;-71
2023/03/01 01:28:58;;;;;;;13.40;10.53;;;5.70;63.40;;;;;;6277582;22;20015;-71
2023/03/01 01:31:24;;;;;;;14.97;10.70;;;5.60;63.50;;;;;;6276233;22;20438;-72
2023/03/01 01:33:52;;;;;;;17.37;11.47;;;5.60;63.40;;;;;;6277713;22;20101;-71
2023/03/01 01:36:18;;;;;;;14.63;9.60;;;5.60;63.70;;;;;;6277722;22;20426;-71
2023/03/01 01:38:43;;;;;;;16.17;11.60;;;5.60;63.70;;;;;;6277579;22;20000;-71
2023/03/01 01:41:13;;;;;;;15.27;10.73;;;5.60;63.50;;;;;;6277477;22;20011;-70
2023/03/01 01:43:43;;;;;;;17.30;11.43;;;5.60;63.80;;;;;;6277094;22;20078;-70
2023/03/01 01:46:17;;;;;;;18.57;10.97;;;5.60;63.20;;;;;;6277720;22;20445;-71
2023/03/01 01:48:50;;;;;;;14.03;10.73;;;5.60;63.60;;;;;;6277193;22;20019;-71
2023/03/01 01:51:23;;;;;;;15.82;10.77;;;5.60;63.60;;;;;;6277643;22;20002;-71
2023/03/01 01:53:56;;;;;;;14.47;10.10;;;5.50;63.90;;;;;;6277449;22;20050;-71
2023/03/01 01:56:24;;;;;;;14.55;10.05;;;5.50;63.80;;;;;;6277630;22;20446;-71
2023/03/01 01:58:50;;;;;;;14.83;10.73;;;5.50;64.10;;;;;;6274757;22;20004;-72
2023/03/01 02:01:16;;;;;;;16.03;10.73;;;5.40;64.50;;;;;;6274149;22;19999;-72
2023/03/01 02:03:44;;;;;;;13.87;10.17;;;5.50;64.40;;;;;;6273837;22;20011;-71
2023/03/01 02:06:48;;;;;;;15.27;10.27;;;5.50;64.30;;;;;;6275321;22;20011;-71
2023/03/01 02:09:15;;;;;;;21.13;9.73;;;5.50;64.70;;;;;;6276250;22;20460;-72
2023/03/01 02:11:41;;;;;;;15.87;11.10;;;5.40;64.70;;;;;;6276416;22;20437;-71
2023/03/01 02:14:07;;;;;;;17.37;10.53;;;5.40;64.30;;;;;;6277253;22;20464;-71
2023/03/01 02:16:33;;;;;;;14.47;10.67;;;5.40;64.70;;;;;;6277148;22;19996;-72
2023/03/01 02:18:59;;;;;;;16.10;10.90;;;5.40;64.80;;;;;;6277090;22;20011;-71
2023/03/01 02:21:41;;;;;;;17.00;10.67;;;5.40;64.30;;;;;;6276525;22;20035;-71
2023/03/01 02:24:35;;;;;;;16.53;11.57;;;5.40;63.80;;;;;;6276943;22;20003;-71
2023/03/01 02:27:01;;;;;;;13.73;10.10;;;5.40;64.20;;;;;;6261685;22;20004;-70
2023/03/01 02:29:28;;;;;;;17.67;10.20;;;5.40;64.60;;;;;;6276821;22;20445;-71
2023/03/01 02:31:56;;;;;;;15.23;10.47;;;5.40;64.60;;;;;;6277323;22;19999;-71
2023/03/01 02:34:25;;;;;;;13.70;10.30;;;5.40;64.30;;;;;;6277296;22;20004;-71
2023/03/01 02:37:00;;;;;;;16.53;10.97;;;5.40;64.00;;;;;;6276508;22;20007;-70
2023/03/01 02:39:32;;;;;;;16.87;10.87;;;5.30;64.40;;;;;;6276913;22;19999;-71
2023/03/01 02:41:58;;;;;;;16.00;10.13;;;5.30;64.80;;;;;;6277384;22;20000;-71
2023/03/01 02:44:24;;;;;;;15.53;10.43;;;5.30;65.00;;;;;;6276760;22;20007;-71
2023/03/01 02:46:53;;;;;;;15.87;10.70;;;5.30;65.00;;;;;;6277315;22;20098;-71
2023/03/01 02:49:37;;;;;;;14.07;10.53;;;5.30;64.90;;;;;;6276909;22;20026;-71
2023/03/01 02:52:30;;;;;;;16.23;9.93;;;5.30;64.60;;;;;;6275142;22;19999;-71
2023/03/01 02:55:05;;;;;;;15.13;9.97;;;5.30;65.10;;;;;;6276890;22;20000;-70
2023/03/01 02:57:33;;;;;;;13.93;10.00;;;5.30;64.50;;;;;;6276670;22;20002;-70
2023/03/01 03:00:07;;;;;;;15.77;10.63;;;5.30;64.20;;;;;;6276615;22;20000;-71
2023/03/01 03:02:36;;;;;;;17.53;10.33;;;5.30;64.60;;;;;;6277241;22;20446;-72
2023/03/01 03:05:11;;;;;;;19.93;10.33;;;5.30;64.40;;;;;;6276567;22;20308;-72
2023/03/01 03:07:39;;;;;;;16.33;9.90;;;5.30;64.00;;;;;;6276902;22;19996;-71
2023/03/01 03:10:09;;;;;;;19.00;10.27;;;5.30;64.20;;;;;;6276575;22;20016;-71
2023/03/01 03:12:34;;;;;;;12.87;8.93;;;5.40;64.30;;;;;;6276977;22;20004;-71
2023/03/01 03:15:00;;;;;;;13.67;9.87;;;5.40;64.30;;;;;;6276559;22;20027;-71
2023/03/01 03:17:26;;;;;;;16.00;10.67;;;5.40;64.40;;;;;;6277392;22;20026;-71
2023/03/01 03:19:51;;;;;;;19.20;10.43;;;5.40;64.30;;;;;;6277028;22;20083;-72
2023/03/01 03:22:17;;;;;;;16.70;10.03;;;5.40;64.40;;;;;;6276703;22;19996;-72
2023/03/01 03:24:43;;;;;;;16.60;9.90;;;5.50;64.50;;;;;;6276636;22;20007;-72
2023/03/01 03:27:08;;;;;;;16.03;9.93;;;5.50;64.00;;;;;;6276327;22;20381;-71
2023/03/01 03:29:34;;;;;;;21.10;10.00;;;5.50;64.30;;;;;;6276542;22;20008;-71
2023/03/01 03:32:00;;;;;;;15.50;10.37;;;5.50;64.00;;;;;;6276396;22;20533;-71
2023/03/01 03:34:25;;;;;;;18.90;9.73;;;5.50;64.40;;;;;;6276301;22;20023;-71
2023/03/01 03:36:59;;;;;;;16.20;9.93;;;5.50;64.30;;;;;;6276507;22;19996;-71
2023/03/01 03:39:26;;;;;;;16.87;10.50;;;5.50;64.50;;;;;;6276648;22;20083;-72
2023/03/01 03:41:53;;;;;;;17.60;10.13;;;5.50;64.20;;;;;;6276544;22;20435;-71
2023/03/01 03:44:19;;;;;;;17.17;10.10;;;5.50;64.60;;;;;;6276192;22;20008;-71
2023/03/01 03:46:45;;;;;;;20.33;10.77;;;5.50;64.40;;;;;;6276531;22;20003;-71
2023/03/01 03:49:10;;;;;;;19.20;9.93;;;5.50;64.10;;;;;;6276203;22;20487;-71
2023/03/01 03:51:36;;;;;;;16.37;10.37;;;5.50;64.30;;;;;;6276315;22;20007;-72
2023/03/01 03:54:02;;;;;;;17.43;9.83;;;5.50;64.40;;;;;;6274849;22;19999;-71
2023/03/01 03:56:27;;;;;;;17.63;9.97;;;5.50;64.80;;;;;;6276311;22;20003;-71
2023/03/01 03:58:53;;;;;;;15.90;10.13;;;5.50;64.90;;;;;;6276471;22;20000;-71
2023/03/01 04:01:19;;;;;;;22.40;10.73;;;5.50;64.80;;;;;;6276410;22;20091;-71
2023/03/01 04:03:47;;;;;;;15.17;10.13;;;5.50;64.60;;;;;;6276423;22;20411;-71
2023/03/01 04:06:14;;;;;;;19.13;10.90;;;5.50;64.40;;;;;;6276163;22;20000;-72
2023/03/01 04:08:40;;;;;;;22.27;11.10;;;5.50;64.50;;;;;;6276086;22;20011;-71
2023/03/01 04:13:52;;;;;;;20.80;10.20;;;5.50;64.60;;;;;;6276167;22;20098;-71
2023/03/01 04:16:18;;;;;;;16.67;10.03;;;5.50;65.10;;;;;;6276162;22;20003;-71
2023/03/01 04:18:44;;;;;;;18.80;10.30;;;5.60;65.50;;;;;;6275854;22;19999;-71
2023/03/01 04:21:11;;;;;;;20.90;10.40;;;5.60;65.50;;;;;;6276025;22;20326;-71
2023/03/01 04:23:37;;;;;;;17.27;10.03;;;5.50;65.50;;;;;;6276087;22;20000;-70
2023/03/01 04:26:04;;;;;;;16.60;9.97;;;5.60;65.60;;;;;;6276499;22;20440;-71
2023/03/01 04:28:35;;;;;;;20.10;10.60;;;5.60;65.50;;;;;;6276180;22;20418;-71
2023/03/01 04:31:12;;;;;;;18.57;10.47;;;5.60;65.50;;;;;;6276207;22;20011;-71
2023/03/01 04:33:40;;;;;;;16.07;10.73;;;5.70;65.30;;;;;;6276410;22;19995;-71
2023/03/01 04:36:08;;;;;;;17.43;9.93;;;5.70;65.10;;;;;;6275870;22;20057;-70
2023/03/01 04:38:36;;;;;;;14.33;10.20;;;5.70;65.00;;;;;;6276658;22;20008;-72
2023/03/01 04:41:03;;;;;;;19.00;10.60;;;5.80;65.00;;;;;;6275994;22;20003;-72
2023/03/01 04:43:28;;;;;;;21.17;10.80;;;5.80;65.00;;;;;;6276128;22;20010;-70
2023/03/01 04:45:54;;;;;;;16.47;9.80;;;5.80;65.10;;;;;;6275893;22;20078;-70
2023/03/01 04:48:20;;;;;;;15.07;9.93;;;5.90;64.50;;;;;;6275827;22;20011;-71
2023/03/01 04:50:45;;;;;;;18.20;10.07;;;5.90;64.30;;;;;;6275951;22;20322;-71
2023/03/01 04:53:11;;;;;;;15.33;9.60;;;6.00;64.50;;;;;;6275958;22;19996;-71
2023/03/01 04:55:37;;;;;;;18.70;9.70;;;6.00;64.60;;;;;;6275903;22;20031;-71
2023/03/01 04:58:02;;;;;;;18.20;10.00;;;6.00;64.80;;;;;;6275997;22;19999;-72
2023/03/01 05:00:28;;;;;;;20.20;10.00;;;6.00;64.90;;;;;;6276010;22;20122;-71
2023/03/01 05:03:00;;;;;;;16.50;10.43;;;6.00;64.80;;;;;;6276109;22;20452;-71
2023/03/01 05:05:27;;;;;;;17.50;10.00;;;6.00;64.70;;;;;;6276147;22;20002;-70
2023/03/01 05:07:59;;;;;;;16.80;10.20;;;6.10;64.40;;;;;;6276168;22;20253;-71
2023/03/01 05:10:26;;;;;;;25.20;10.63;;;6.10;64.30;;;;;;6275825;22;20042;-71
2023/03/01 05:12:52;;;;;;;18.57;10.30;;;6.10;64.20;;;;;;6275847;22;20000;-72
2023/03/01 05:15:19;;;;;;;17.10;9.20;;;6.10;64.10;;;;;;6276218;22;20091;-71
2023/03/01 05:17:46;;;;;;;14.03;10.10;;;6.20;64.10;;;;;;6275826;22;20026;-72
2023/03/01 05:20:11;;;;;;;16.87;9.50;;;6.20;64.00;;;;;;6276033;22;20007;-70
2023/03/01 05:22:37;;;;;;;14.97;9.37;;;6.20;64.10;;;;;;6275972;22;20000;-71
2023/03/01 05:25:04;;;;;;;17.30;10.03;;;6.20;64.20;;;;;;6276000;22;20445;-71
2023/03/01 05:27:30;;;;;;;19.30;8.63;;;6.20;64.30;;;;;;6275887;22;19996;-70
2023/03/01 05:29:56;;;;;;;14.67;9.60;;;6.20;64.40;;;;;;6275928;22;20062;-71
2023/03/01 05:32:22;;;;;;;14.97;9.40;;;6.20;64.50;;;;;;6275561;22;20003;-71
2023/03/01 05:34:47;;;;;;;16.50;9.13;;;6.30;64.40;;;;;;6276149;22;20007;-71
2023/03/01 05:37:13;;;;;;;20.00;9.90;;;6.30;64.40;;;;;;6275870;22;19996;-72
2023/03/01 05:39:39;;;;;;;22.80;9.87;;;6.30;64.30;;;;;;6275797;22;20007;-72
2023/03/01 05:42:05;;;;;;;14.30;9.40;;;6.30;64.30;;;;;;6275545;22;20074;-72
2023/03/01 05:44:31;;;;;;;16.10;9.70;;;6.30;64.00;;;;;;6275642;22;20014;-72
2023/03/01 05:46:57;;;;;;;13.93;9.07;;;6.30;63.80;;;;;;6277020;22;20031;-72
2023/03/01 05:49:26;;;;;;;14.17;9.37;;;6.40;64.00;;;;;;6277293;22;20018;-71
2023/03/01 05:51:53;;;;;;;16.37;10.37;;;6.40;63.70;;;;;;6277631;22;20083;-72
2023/03/01 05:54:20;;;;;;;14.30;9.13;;;6.40;63.70;;;;;;6277944;22;20426;-72
2023/03/01 05:56:46;;;;;;;18.67;9.80;;;6.40;63.60;;;;;;6277227;22;20027;-70
2023/03/01 05:59:13;;;;;;;20.40;10.10;;;6.40;63.60;;;;;;6277729;22;20003;-72
2023/03/01 06:01:39;;;;;;;15.20;9.57;;;6.40;63.60;;;;;;6277721;22;19995;-72
2023/03/01 06:04:05;;;;;;;17.43;9.40;;;6.40;63.20;;;;;;6277321;22;20011;-71
2023/03/01 06:06:34;;;;;;;14.27;9.30;;;6.40;63.00;;;;;;6277523;22;20445;-72
2023/03/01 06:09:00;;;;;;;13.50;8.97;;;6.40;62.80;;;;;;6277278;22;20008;-72
2023/03/01 06:11:25;;;;;;;14.40;9.20;;;6.40;62.80;;;;;;6277577;22;20002;-72
2023/03/01 06:13:51;;;;;;;15.40;9.50;;;6.40;62.50;;;;;;6277502;22;20076;-73
2023/03/01 06:16:17;;;;;;;16.00;9.37;;;6.40;62.50;;;;;;6277429;22;19996;-71
2023/03/01 06:18:42;;;;;;;16.47;9.53;;;6.40;62.50;;;;;;6277384;22;20019;-72
2023/03/01 06:21:09;;;;;;;15.47;9.20;;;6.40;62.50;;;;;;6277175;22;20027;-71
2023/03/01 06:23:35;;;;;;;13.83;9.07;;;6.40;62.60;;;;;;6276999;22;20152;-71
2023/03/01 06:26:04;;;;;;;16.27;8.30;;;6.40;62.70;;;;;;6277162;22;19996;-72
2023/03/01 06:28:30;;;;;;;12.60;8.10;;;6.50;62.80;;;;;;6276787;22;20007;-72
2023/03/01 06:30:56;;;;;;;12.50;8.40;;;6.50;62.90;;;;;;6277036;22;20002;-72
2023/03/01 06:33:23;;;;;;;17.70;9.07;;;6.50;63.00;;;;;;6277308;22;20002;-71
2023/03/01 06:35:50;;;;;;;12.73;8.83;;;6.50;63.00;;;;;;6277202;22;20003;-70
2023/03/01 06:38:18;;;;;;;19.93;8.63;;;6.60;62.50;;;;;;6276856;22;20004;-71
2023/03/01 06:40:43;;;;;;;14.23;8.10;;;6.60;62.40;;;;;;6276780;22;20489;-71
2023/03/01 06:43:09;;;;;;;15.30;9.17;;;6.60;62.80;;;;;;6276706;22;20031;-71
2023/03/01 06:45:35;;;;;;;13.63;9.70;;;6.70;62.10;;;;;;6276670;22;20422;-71
2023/03/01 06:48:07;;;;;;;13.67;8.57;;;6.70;62.20;;;;;;6277468;22;20012;-72
2023/03/01 06:50:34;;;;;;;12.25;8.68;;;6.70;62.10;;;;;;6276714;22;20008;-70
2023/03/01 06:53:00;;;;;;;18.27;8.90;;;6.70;62.20;;;;;;6276867;22;20003;-72
2023/03/01 06:55:26;;;;;;;15.80;8.67;;;6.70;62.20;;;;;;6276998;22;19999;-72
2023/03/01 06:57:56;;;;;;;18.57;9.73;;;6.70;62.10;;;;;;6276589;22;19999;-72
2023/03/01 07:00:23;;;;;;;14.90;8.73;;;6.70;62.00;;;;;;6276617;22;20445;-72
2023/03/01 07:02:49;;;;;;;15.47;8.47;;;6.70;62.50;;;;;;6276606;22;20000;-72
2023/03/01 07:05:15;;;;;;;19.47;10.43;;;6.70;61.80;;;;;;6276655;22;20023;-71
2023/03/01 07:07:41;;;;;;;15.17;8.90;;;6.70;61.60;;;;;;6276816;22;20007;-71
2023/03/01 07:10:07;;;;;;;14.63;9.63;;;6.70;61.50;;;;;;6276622;22;20426;-69
2023/03/01 07:12:33;;;;;;;12.73;9.57;;;6.70;61.30;;;;;;6277003;22;19996;-70
2023/03/01 07:14:59;;;;;;;16.17;9.60;;;6.70;61.50;;;;;;6273239;22;20346;-73
2023/03/01 07:17:25;;;;;;;18.73;9.40;;;6.70;62.00;;;;;;6275852;22;20035;-75
2023/03/01 07:19:50;;;;;;;14.27;9.33;;;6.80;61.30;;;;;;6275795;22;20007;-74
2023/03/01 07:22:16;;;;;;;14.73;8.57;;;6.80;61.40;;;;;;6276015;22;20000;-71
2023/03/01 07:24:42;;;;;;;15.40;9.10;;;6.80;61.60;;;;;;6275946;22;20082;-72
2023/03/01 07:27:08;;;;;;;14.73;9.03;;;6.80;61.60;;;;;;6275906;22;20486;-72
2023/03/01 07:29:36;;;;;;;17.30;8.97;;;6.80;61.50;;;;;;6275994;22;20023;-72
2023/03/01 07:32:04;;;;;;;16.33;9.17;;;6.80;61.90;;;;;;6276119;22;20015;-76
2023/03/01 07:34:30;;;;;;;12.87;8.70;;;6.90;61.90;;;;;;6275990;22;20007;-80
2023/03/01 07:36:56;;;;;;;19.37;10.03;;;6.90;61.80;;;;;;6275162;22;19999;-78
2023/03/01 07:39:22;;;;;;;14.50;9.20;;;6.90;61.70;;;;;;6275671;22;20003;-78
2023/03/01 07:41:49;;;;;;;13.53;9.03;;;6.90;61.80;;;;;;6275577;22;20002;-77
2023/03/01 07:44:16;;;;;;;14.23;8.60;;;7.00;61.90;;;;;;6275275;22;20090;-78
2023/03/01 07:46:42;;;;;;;15.60;9.40;;;7.00;62.30;;;;;;6275667;22;19995;-77
2023/03/01 07:49:07;;;;;;;16.40;8.90;;;7.10;61.10;;;;;;6275327;22;20027;-76
2023/03/01 07:51:33;;;;;;;14.07;8.47;;;7.00;60.60;;;;;;6275508;22;20010;-74
2023/03/01 07:53:59;;;;;;;19.43;9.57;;;7.10;60.90;;;;;;6275684;22;20034;-77
2023/03/01 07:56:24;;;;;;;18.67;8.67;;;7.10;60.70;;;;;;6275378;22;20023;-77
2023/03/01 07:58:50;;;;;;;16.37;8.27;;;7.10;61.00;;;;;;6275713;22;20004;-78
2023/03/01 08:01:19;;;;;;;15.43;8.40;;;7.20;61.50;;;;;;6275536;22;20329;-77
2023/03/01 08:03:44;;;;;;;17.83;8.07;;;7.20;61.30;;;;;;6275317;22;20081;-73
2023/03/01 08:06:11;;;;;;;13.60;7.83;;;7.30;61.20;;;;;;6275598;22;20004;-75
2023/03/01 08:08:38;;;;;;;24.40;8.50;;;7.30;60.90;;;;;;6275066;22;20069;-76
2023/03/01 08:11:06;;;;;;;12.67;7.70;;;7.30;61.00;;;;;;6275443;22;20003;-78
2023/03/01 08:13:32;;;;;;;13.10;7.13;;;7.40;60.40;;;;;;6275971;22;20004;-78
2023/03/01 08:16:06;;;;;;;18.43;8.43;;;7.40;60.50;;;;;;6275331;22;20027;-76
2023/03/01 08:18:31;;;;;;;14.67;7.77;;;7.40;60.50;;;;;;6273645;22;20015;-77
2023/03/01 08:21:05;;;;;;;13.87;7.37;;;7.40;60.60;;;;;;6274991;22;20008;-77
2023/03/01 08:23:31;;;;;;;20.87;6.97;;;7.50;60.50;;;;;;6275697;22;20382;-79
2023/03/01 08:26:09;;;;;;;17.87;8.17;;;7.50;60.60;;;;;;6274887;22;19996;-78
2023/03/01 08:28:34;;;;;;;15.47;6.70;;;7.50;61.00;;;;;;6275113;22;20307;-78
2023/03/01 08:31:00;;;;;;;19.77;7.43;;;7.50;61.30;;;;;;6275309;22;20044;-77
2023/03/01 08:33:26;;;;;;;20.27;6.83;;;7.50;61.60;;;;;;6275286;22;19999;-79
2023/03/01 08:35:52;;;;;;;14.43;6.43;;;7.60;61.60;;;;;;6275300;22;20073;-78
2023/03/01 08:38:17;;;;;;;15.57;6.33;;;7.70;61.50;;;;;;6275582;22;20381;-79
2023/03/01 08:40:43;;;;;;;31.80;7.07;;;7.70;61.40;;;;;;6275338;22;20019;-77
2023/03/01 08:43:09;;;;;;;16.60;6.33;;;7.70;61.40;;;;;;6275287;22;20004;-77
2023/03/01 08:45:34;;;;;;;17.80;6.83;;;7.80;60.80;;;;;;6274264;22;20003;-78
2023/03/01 08:48:00;;;;;;;16.83;6.47;;;7.80;60.70;;;;;;6275643;22;20015;-74
2023/03/01 08:50:26;;;;;;;24.93;6.13;;;7.80;60.90;;;;;;6273779;22;20087;-78
2023/03/01 08:52:51;;;;;;;18.57;6.83;;;7.90;60.90;;;;;;6276399;22;20011;-78
2023/03/01 08:55:17;;;;;;;19.50;6.33;;;8.00;60.80;;;;;;6276288;22;20003;-79
2023/03/01 08:57:43;;;;;;;128.87;15.37;;;8.00;60.70;;;;;;6276068;22;20026;-79
2023/03/01 09:00:14;;;;;;;21.60;5.77;;;8.10;60.80;;;;;;6275714;22;20003;-74
2023/03/01 09:02:40;;;;;;;23.77;5.97;;;8.20;60.70;;;;;;6276017;22;20438;-76
2023/03/01 09:05:06;;;;;;;19.67;7.17;;;8.20;60.60;;;;;;6276020;22;20011;-78
2023/03/01 09:07:31;;;;;;;13.37;5.67;;;8.30;60.50;;;;;;6275450;22;20065;-79
2023/03/01 09:09:57;;;;;;;87.30;12.23;;;8.30;60.10;;;;;;6275682;22;20023;-81
2023/03/01 09:12:24;;;;;;;22.63;6.40;;;8.40;60.30;;;;;;6275894;22;20415;-78
2023/03/01 09:14:50;;;;;;;19.70;6.03;;;8.40;60.10;;;;;;6275725;22;20394;-77
2023/03/01 09:17:16;;;;;;;18.23;6.00;;;8.40;59.90;;;;;;6275394;22;20000;-77
2023/03/01 09:19:42;;;;;;;15.43;6.70;;;8.40;59.70;;;;;;6273661;22;20342;-78
2023/03/01 09:22:07;;;;;;;15.63;6.60;;;8.50;58.60;;;;;;6277214;22;19999;-78
2023/03/01 09:24:33;;;;;;;12.97;6.63;;;8.50;58.60;;;;;;6277753;22;20008;-78
2023/03/01 09:26:59;;;;;;;21.80;7.13;;;8.50;58.60;;;;;;6277412;22;20461;-79
2023/03/01 09:29:25;;;;;;;14.67;6.37;;;8.40;58.40;;;;;;6277468;22;20050;-77
2023/03/01 09:31:54;;;;;;;12.50;6.00;;;8.40;58.70;;;;;;6277881;22;20052;-79
2023/03/01 09:34:23;;;;;;;13.50;6.13;;;8.40;58.80;;;;;;6277639;22;20026;-75
2023/03/01 09:36:49;;;;;;;13.90;5.40;;;8.40;59.10;;;;;;6277540;22;20022;-79
2023/03/01 09:39:17;;;;;;;10.13;5.20;;;8.40;59.40;;;;;;6277850;22;20325;-79
2023/03/01 09:42:04;;;;;;;12.03;5.33;;;8.40;59.50;;;;;;6277303;22;19996;-79
2023/03/01 09:44:36;;;;;;;12.40;5.97;;;8.40;59.70;;;;;;6277481;22;20322;-76
2023/03/01 09:47:03;;;;;;;13.93;6.47;;;8.40;59.30;;;;;;6277403;22;20371;-79
2023/03/01 09:49:35;;;;;;;16.33;4.77;;;8.40;59.10;;;;;;6277498;22;20445;-78
2023/03/01 09:52:21;;;;;;;17.07;5.63;;;8.40;58.90;;;;;;6277046;22;20056;-77
2023/03/01 09:54:49;;;;;;;82.20;12.03;;;8.40;59.30;;;;;;6277489;22;20022;-74
2023/03/01 09:57:26;;;;;;;34.40;7.17;;;8.50;59.60;;;;;;6278077;22;20424;-79
2023/03/01 10:00:12;;;;;;;27.13;6.27;;;8.50;59.40;;;;;;6277648;22;20003;-78
2023/03/01 10:03:09;;;;;;;24.23;6.30;;;8.50;59.40;;;;;;6276963;22;20087;-79
2023/03/01 10:05:47;;;;;;;16.87;5.20;;;8.60;59.20;;;;;;6276751;22;20129;-77
2023/03/01 10:08:41;;;;;;;11.57;5.77;;;8.50;59.60;;;;;;6277716;22;20445;-78
2023/03/01 10:11:23;;;;;;;30.10;8.07;;;8.60;59.20;;;;;;6277494;22;20004;-77
2023/03/01 10:13:57;;;;;;;18.37;5.80;;;8.70;58.60;;;;;;6277304;22;20004;-75
2023/03/01 10:16:48;;;;;;;15.07;6.07;;;8.70;58.40;;;;;;6277311;22;20004;-77
2023/03/01 10:19:34;;;;;;;129.73;15.47;;;8.70;58.10;;;;;;6277569;22;20007;-77
2023/03/01 10:22:13;;;;;;;24.87;5.43;;;8.60;58.30;;;;;;6277532;22;20004;-79
2023/03/01 10:24:39;;;;;;;18.00;5.90;;;8.50;58.60;;;;;;6277140;22;20003;-78
2023/03/01 10:27:13;;;;;;;15.97;6.40;;;8.50;58.90;;;;;;6277324;22;20008;-73
2023/03/01 10:30:07;;;;;;;17.57;5.67;;;8.50;59.00;;;;;;6277291;22;20018;-78
2023/03/01 10:32:33;;;;;;;16.70;5.90;;;8.50;59.20;;;;;;6276729;22;20018;-78
2023/03/01 10:34:59;;;;;;;16.80;6.27;;;8.50;59.10;;;;;;6277222;22;20426;-77
2023/03/01 10:37:27;;;;;;;12.23;6.37;;;8.50;59.00;;;;;;6277137;22;20000;-77
2023/03/01 10:40:05;;;;;;;13.53;5.70;;;8.50;59.00;;;;;;6277263;22;20034;-78
2023/03/01 10:42:49;;;;;;;8.93;5.20;;;8.50;59.10;;;;;;6277406;22;20006;-77
2023/03/01 10:45:29;;;;;;;12.17;5.70;;;8.60;59.00;;;;;;6276775;22;20000;-74
2023/03/01 10:48:15;;;;;;;21.53;5.10;;;8.60;59.00;;;;;;6276660;22;20385;-76
2023/03/01 10:50:49;;;;;;;16.10;5.03;;;8.60;59.20;;;;;;6276829;22;20018;-80
2023/03/01 10:53:35;;;;;;;8.70;4.70;;;8.60;60.00;;;;;;6277160;22;20006;-78
2023/03/01 10:56:18;;;;;;;14.00;4.80;;;8.60;60.10;;;;;;6277474;22;20095;-77
2023/03/01 10:58:58;;;;;;;10.63;4.80;;;8.60;60.20;;;;;;6276769;22;20091;-78
2023/03/01 11:01:26;;;;;;;9.03;5.40;;;8.70;59.80;;;;;;6277083;22;20003;-79
2023/03/01 11:04:03;;;;;;;14.83;5.17;;;8.70;59.70;;;;;;6276430;22;20004;-78
2023/03/01 11:06:29;;;;;;;10.33;4.33;;;8.70;59.70;;;;;;6276227;22;20479;-79
2023/03/01 11:08:54;;;;;;;25.20;4.63;;;8.70;59.70;;;;;;6276209;22;20012;-77
2023/03/01 11:11:34;;;;;;;22.53;5.20;;;8.70;59.50;;;;;;6276262;22;20330;-79
2023/03/01 11:14:21;;;;;;;31.77;5.13;;;8.70;59.50;;;;;;6276588;22;20002;-78
2023/03/01 11:16:49;;;;;;;11.13;4.30;;;8.70;60.00;;;;;;6275404;22;20003;-75
2023/03/01 11:19:18;;;;;;;15.10;4.63;;;8.70;60.00;;;;;;6272213;22;20004;-72
2023/03/01 11:22:05;;;;;;;91.37;8.97;;;8.70;60.10;;;;;;6272731;22;20053;-74
2023/03/01 11:24:58;;;;;;;8.47;4.43;;;8.80;60.10;;;;;;6276338;22;20003;-74
2023/03/01 11:27:32;;;;;;;10.75;4.22;;;8.80;60.10;;;;;;6273320;22;20142;-75
2023/03/01 11:30:20;;;;;;;14.53;4.43;;;8.80;60.20;;;;;;6274386;22;20012;-71
2023/03/01 11:33:07;;;;;;;12.33;4.70;;;8.80;60.00;;;;;;6267798;22;20034;-73
2023/03/01 11:35:37;;;;;;;18.17;5.53;;;8.80;60.20;;;;;;6276135;22;20010;-71
2023/03/01 11:38:15;;;;;;;8.10;5.37;;;8.70;60.30;;;;;;6276096;22;20072;-72
2023/03/01 11:41:05;;;;;;;17.93;5.20;;;8.80;60.30;;;;;;6274525;22;20335;-73
2023/03/01 11:43:54;;;;;;;18.60;5.40;;;8.70;60.20;;;;;;6276435;22;19999;-72
2023/03/01 11:46:33;;;;;;;14.93;5.50;;;8.80;60.40;;;;;;6276141;22;20011;-72
2023/03/01 11:49:27;;;;;;;10.17;4.70;;;8.70;60.60;;;;;;6275681;22;20097;-72
2023/03/01 11:52:04;;;;;;;13.63;4.70;;;8.80;60.80;;;;;;6275945;22;20007;-72
2023/03/01 11:54:47;;;;;;;10.43;4.90;;;8.70;60.70;;;;;;6275535;22;19995;-72
2023/03/01 11:57:50;;;;;;;10.77;4.63;;;8.70;60.40;;;;;;6276526;22;20517;-72
2023/03/01 12:00:22;;;;;;;7.85;5.03;;;8.80;60.70;;;;;;6276338;22;20050;-72
2023/03/01 12:03:13;;;;;;;9.37;4.63;;;8.80;60.40;;;;;;6275776;22;19999;-73
2023/03/01 12:06:17;;;;;;;6.60;4.60;;;8.70;60.60;;;;;;6275646;22;19995;-72
2023/03/01 12:09:27;;;;;;;7.53;5.13;;;8.70;60.90;;;;;;6267344;22;20022;-71
2023/03/01 12:11:55;;;;;;;6.73;4.73;;;8.70;61.40;;;;;;6212427;23;20001;-71
2023/03/01 12:14:45;;;;;;;10.23;4.70;;;8.70;61.20;;;;;;6212539;23;20008;-71
2023/03/01 12:17:23;;;;;;;6.80;3.70;;;8.70;62.00;;;;;;6253278;22;20008;-72
2023/03/01 12:19:57;;;;;;;9.80;4.67;;;8.70;61.60;;;;;;6276358;22;20318;-71
2023/03/01 12:22:30;;;;;;;8.27;4.20;;;8.70;61.20;;;;;;6276030;22;20000;-72
2023/03/01 12:25:08;;;;;;;6.78;4.25;;;8.70;60.90;;;;;;6275904;22;20006;-71
2023/03/01 12:27:33;;;;;;;7.97;3.73;;;8.70;61.10;;;;;;6276075;22;20007;-71
2023/03/01 12:30:32;;;;;;;6.87;3.40;;;8.70;61.10;;;;;;6276327;22;20008;-71
2023/03/01 12:33:24;;;;;;;7.13;4.00;;;8.70;60.70;;;;;;6275939;22;20000;-71
2023/03/01 12:36:28;;;;;;;11.13;3.47;;;8.70;60.70;;;;;;6246400;22;20032;-72
2023/03/01 12:39:19;;;;;;;13.27;3.30;;;8.80;60.10;;;;;;6276133;22;19999;-71
2023/03/01 12:41:59;;;;;;;4.80;3.13;;;8.80;60.50;;;;;;6274235;22;20004;-70
2023/03/01 12:44:28;;;;;;;6.13;3.33;;;8.80;60.40;;;;;;6275846;22;20004;-71
2023/03/01 12:47:14;;;;;;;4.73;3.40;;;8.80;60.80;;;;;;6275587;22;20000;-73
2023/03/01 12:50:08;;;;;;;3.57;3.00;;;8.80;61.10;;;;;;6276086;22;20012;-72
2023/03/01 12:52:50;;;;;;;6.23;3.40;;;8.80;60.90;;;;;;6276100;22;20004;-72
2023/03/01 12:55:37;;;;;;;4.97;3.17;;;8.90;61.00;;;;;;6275955;22;20004;-71
2023/03/01 12:58:03;;;;;;;5.80;3.50;;;8.90;61.20;;;;;;6278120;22;20004;-72
2023/03/01 13:00:37;;;;;;;4.53;3.30;;;8.90;61.40;;;;;;6278144;22;20431;-71
2023/03/01 13:03:27;;;;;;;4.00;2.90;;;8.90;61.40;;;;;;6276419;22;20010;-72